createdAt,value
2018-11-26T00:02:22.818Z,100408.19
2018-11-26T00:04:51.048Z,100407.70
2018-11-26T00:07:19.351Z,100402.01
2018-11-26T00:09:47.596Z,100402.01
2018-11-26T00:12:15.835Z,100397.13
2018-11-26T00:14:44.035Z,100397.27
2018-11-26T00:17:12.314Z,100385.63
2018-11-26T00:19:40.545Z,100391.09
2018-11-26T00:22:08.791Z,100387.31
2018-11-26T00:24:37.011Z,100382.91
2018-11-26T00:27:05.339Z,100380.31
2018-11-26T00:29:33.590Z,100377.22
2018-11-26T00:32:01.787Z,100375.44
2018-11-26T00:34:30.018Z,100378.63
2018-11-26T00:36:58.285Z,100379.11
2018-11-26T00:39:26.521Z,100375.53
2018-11-26T00:41:54.758Z,100372.44
2018-11-26T00:44:23.014Z,100375.05
2018-11-26T00:46:51.267Z,100366.05
2018-11-26T00:49:19.495Z,100362.73
2018-11-26T00:51:47.705Z,100361.91
2018-11-26T00:54:15.930Z,100356.58
2018-11-26T00:56:44.158Z,100362.14
2018-11-26T00:59:12.401Z,100364.62
2018-11-26T01:01:40.658Z,100366.88
2018-11-26T01:04:08.910Z,100369.59
2018-11-26T01:06:37.174Z,100371.72
2018-11-26T01:09:07.123Z,100363.54
2018-11-26T01:11:35.387Z,100363.54
2018-11-26T01:14:03.594Z,100364.50
2018-11-26T01:16:31.854Z,100360.80
2018-11-26T01:19:00.084Z,100358.28
2018-11-26T01:21:28.462Z,100352.72
2018-11-26T01:23:56.705Z,100363.41
2018-11-26T01:26:24.960Z,100362.00
2018-11-26T01:28:53.218Z,100361.17
2018-11-26T01:31:21.425Z,100365.09
2018-11-26T01:33:49.690Z,100364.16
2018-11-26T01:36:17.918Z,100368.32
2018-11-26T01:38:46.206Z,100370.34
2018-11-26T01:41:14.483Z,100380.20
2018-11-26T01:43:42.712Z,100384.80
2018-11-26T01:46:10.945Z,100378.77
2018-11-26T01:48:39.178Z,100383.98
2018-11-26T01:51:07.408Z,100384.12
2018-11-26T01:53:35.638Z,100371.18
2018-11-26T01:56:03.872Z,100379.00
2018-11-26T01:58:32.115Z,100377.36
2018-11-26T02:01:00.332Z,100382.58
2018-11-26T02:03:28.607Z,100383.53
2018-11-26T02:05:56.823Z,100370.83
2018-11-26T02:08:25.126Z,100368.12
2018-11-26T02:10:53.419Z,100364.55
2018-11-26T02:13:21.666Z,100367.50
2018-11-26T02:15:49.901Z,100369.53
2018-11-26T02:18:18.126Z,100375.44
2018-11-26T02:20:46.384Z,100372.37
2018-11-26T02:23:14.633Z,100372.72
2018-11-26T02:25:42.893Z,100369.88
2018-11-26T02:28:11.159Z,100365.09
2018-11-26T02:30:39.380Z,100365.58
2018-11-26T02:33:07.607Z,100371.14
2018-11-26T02:35:35.861Z,100362.73
2018-11-26T02:38:04.110Z,100358.47
2018-11-26T02:40:33.253Z,100356.69
2018-11-26T02:43:01.510Z,100355.86
2018-11-26T02:45:30.331Z,100352.09
2018-11-26T02:47:58.579Z,100351.60
2018-11-26T02:50:26.853Z,100360.02
2018-11-26T02:52:55.084Z,100360.16
2018-11-26T02:55:23.356Z,100347.59
2018-11-26T02:57:51.559Z,100347.70
2018-11-26T03:00:19.802Z,100350.30
2018-11-26T03:02:48.076Z,100351.37
2018-11-26T03:05:25.476Z,100351.27
2018-11-26T03:07:53.757Z,100351.74
2018-11-26T03:10:22.146Z,100355.28
2018-11-26T03:12:50.886Z,100348.42
2018-11-26T03:15:19.193Z,100360.16
2018-11-26T03:17:47.452Z,100353.30
2018-11-26T03:20:15.686Z,100364.31
2018-11-26T03:22:43.955Z,100362.77
2018-11-26T03:25:12.187Z,100355.42
2018-11-26T03:27:40.436Z,100362.18
2018-11-26T03:30:10.694Z,100364.41
2018-11-26T03:32:38.956Z,100363.01
2018-11-26T03:35:08.177Z,100365.62
2018-11-26T03:37:36.414Z,100364.89
2018-11-26T03:40:07.281Z,100364.89
2018-11-26T03:42:35.525Z,100369.29
2018-11-26T03:45:03.893Z,100375.81
2018-11-26T03:47:32.162Z,100373.20
2018-11-26T03:50:00.406Z,100375.23
2018-11-26T03:52:28.623Z,100372.27
2018-11-26T03:54:56.838Z,100369.77
2018-11-26T03:57:25.109Z,100374.16
2018-11-26T03:59:53.383Z,100377.11
2018-11-26T04:02:21.690Z,100374.98
2018-11-26T04:04:49.994Z,100371.80
2018-11-26T04:07:18.234Z,100377.84
2018-11-26T04:09:46.466Z,100378.90
2018-11-26T04:12:14.734Z,100376.30
2018-11-26T04:14:42.983Z,100378.90
2018-11-26T04:17:11.223Z,100374.03
2018-11-26T04:19:39.426Z,100383.05
2018-11-26T04:22:07.694Z,100382.92
2018-11-26T04:24:35.932Z,100384.33
2018-11-26T04:27:04.170Z,100382.54
2018-11-26T04:29:32.422Z,100379.24
2018-11-26T04:32:00.642Z,100382.54
2018-11-26T04:34:28.880Z,100380.41
2018-11-26T04:36:57.130Z,100383.02
2018-11-26T04:39:25.338Z,100377.45
2018-11-26T04:41:53.565Z,100377.70
2018-11-26T04:44:21.810Z,100383.50
2018-11-26T04:46:53.037Z,100372.03
2018-11-26T04:49:22.417Z,100373.69
2018-11-26T04:51:50.762Z,100376.53
2018-11-26T04:54:19.019Z,100370.11
2018-11-26T04:56:47.223Z,100367.40
2018-11-26T04:59:15.429Z,100362.42
2018-11-26T05:01:43.658Z,100362.18
2018-11-26T05:04:11.906Z,100370.11
2018-11-26T05:06:40.154Z,100361.94
2018-11-26T05:09:09.530Z,100370.97
2018-11-26T05:11:38.193Z,100365.38
2018-11-26T05:14:06.469Z,100370.02
2018-11-26T05:16:34.721Z,100362.91
2018-11-26T05:19:02.957Z,100366.20
2018-11-26T05:21:31.190Z,100361.22
2018-11-26T05:23:59.380Z,100363.48
2018-11-26T05:26:27.609Z,100361.09
2018-11-26T05:28:55.850Z,100360.02
2018-11-26T05:31:24.091Z,100362.97
2018-11-26T05:33:52.340Z,100364.76
2018-11-26T05:36:20.563Z,100363.11
2018-11-26T05:38:48.838Z,100359.30
2018-11-26T05:41:17.068Z,100366.40
2018-11-26T05:43:45.318Z,100368.28
2018-11-26T05:46:13.535Z,100368.18
2018-11-26T05:48:41.751Z,100362.34
2018-11-26T05:51:09.998Z,100365.81
2018-11-26T05:53:38.195Z,100371.72
2018-11-26T05:56:06.437Z,100378.23
2018-11-26T05:58:34.635Z,100372.67
2018-11-26T06:01:02.867Z,100377.17
2018-11-26T06:03:31.100Z,100378.00
2018-11-26T06:05:59.331Z,100374.91
2018-11-26T06:08:27.591Z,100380.47
2018-11-26T06:10:55.813Z,100382.63
2018-11-26T06:13:24.062Z,100376.45
2018-11-26T06:15:52.290Z,100390.32
2018-11-26T06:18:20.543Z,100392.11
2018-11-26T06:20:48.806Z,100389.36
2018-11-26T06:23:17.048Z,100385.23
2018-11-26T06:25:45.282Z,100395.68
2018-11-26T06:28:13.502Z,100385.34
2018-11-26T06:30:41.730Z,100393.52
2018-11-26T06:33:09.954Z,100384.28
2018-11-26T06:35:38.181Z,100381.77
2018-11-26T06:38:07.486Z,100382.97
2018-11-26T06:40:35.706Z,100385.83
2018-11-26T06:43:03.930Z,100385.83
2018-11-26T06:45:32.151Z,100386.17
2018-11-26T06:48:00.362Z,100387.00
2018-11-26T06:50:28.659Z,100389.74
2018-11-26T06:52:56.884Z,100401.73
2018-11-26T06:55:25.119Z,100400.90
2018-11-26T06:57:53.339Z,100402.20
2018-11-26T07:00:21.760Z,100405.64
2018-11-26T07:02:50.291Z,100412.17
2018-11-26T07:05:19.422Z,100415.47
2018-11-26T07:07:47.708Z,100412.13
2018-11-26T07:10:16.321Z,100412.61
2018-11-26T07:12:44.610Z,100421.75
2018-11-26T07:15:14.854Z,100425.56
2018-11-26T07:17:43.138Z,100426.86
2018-11-26T07:20:13.367Z,100426.38
2018-11-26T07:22:41.599Z,100428.75
2018-11-26T07:25:11.994Z,100436.10
2018-11-26T07:27:40.248Z,100440.59
2018-11-26T07:30:13.509Z,100440.95
2018-11-26T07:32:42.592Z,100444.03
2018-11-26T07:35:11.278Z,100445.34
2018-11-26T07:37:39.522Z,100449.26
2018-11-26T07:40:11.332Z,100454.82
2018-11-26T07:42:40.705Z,100454.23
2018-11-26T07:45:13.102Z,100463.27
2018-11-26T07:47:41.353Z,100463.14
2018-11-26T07:50:14.755Z,100462.55
2018-11-26T07:52:43.005Z,100465.50
2018-11-26T07:55:13.446Z,100463.72
2018-11-26T07:57:47.970Z,100469.04
2018-11-26T08:00:17.446Z,100471.75
2018-11-26T08:02:45.974Z,100468.80
2018-11-26T08:05:15.266Z,100479.83
2018-11-26T08:07:43.478Z,100474.50
2018-11-26T08:10:15.920Z,100483.98
2018-11-26T08:12:44.691Z,100484.94
2018-11-26T08:15:15.963Z,100483.64
2018-11-26T08:17:44.230Z,100491.34
2018-11-26T08:20:12.570Z,100490.27
2018-11-26T08:22:40.801Z,100491.68
2018-11-26T08:25:10.729Z,100494.42
2018-11-26T08:27:53.111Z,100499.85
2018-11-26T08:30:23.432Z,100500.33
2018-11-26T08:32:52.915Z,100502.26
2018-11-26T08:35:21.186Z,100509.03
2018-11-26T08:37:54.671Z,100505.32
2018-11-26T08:40:30.098Z,100504.87
2018-11-26T08:43:03.360Z,100508.99
2018-11-26T08:45:42.811Z,100513.29
2018-11-26T08:48:16.693Z,100516.25
2018-11-26T08:50:45.102Z,100514.45
2018-11-26T08:53:13.327Z,100514.35
2018-11-26T08:55:41.571Z,100517.55
2018-11-26T08:58:09.851Z,100514.56
2018-11-26T09:00:38.099Z,100512.91
2018-11-26T09:03:11.719Z,100514.70
2018-11-26T09:05:44.984Z,100519.67
2018-11-26T09:08:13.589Z,100520.60
2018-11-26T09:10:41.880Z,100526.06
2018-11-26T09:13:10.131Z,100517.64
2018-11-26T09:15:41.395Z,100520.94
2018-11-26T09:18:09.638Z,100518.08
2018-11-26T09:20:37.906Z,100526.88
2018-11-26T09:23:06.535Z,100523.64
2018-11-26T09:25:34.809Z,100532.45
2018-11-26T09:28:03.059Z,100536.02
2018-11-26T09:30:31.391Z,100540.77
2018-11-26T09:32:59.639Z,100544.11
2018-11-26T09:35:27.986Z,100546.23
2018-11-26T09:37:56.290Z,100547.75
2018-11-26T09:40:24.575Z,100548.70
2018-11-26T09:42:52.877Z,100548.33
2018-11-26T09:45:21.259Z,100550.28
2018-11-26T09:47:49.513Z,100556.67
2018-11-26T09:50:19.230Z,100552.75
2018-11-26T09:52:47.508Z,100558.80
2018-11-26T09:55:16.508Z,100563.92
2018-11-26T09:57:44.786Z,100558.33
2018-11-26T10:00:16.097Z,100551.20
2018-11-26T10:02:46.570Z,100552.51
2018-11-26T10:05:22.767Z,100549.41
2018-11-26T10:07:50.999Z,100560.69
2018-11-26T10:10:19.378Z,100553.56
2018-11-26T10:12:47.731Z,100563.16
2018-11-26T10:15:21.127Z,100561.73
2018-11-26T10:17:49.386Z,100565.27
2018-11-26T10:20:17.650Z,100560.14
2018-11-26T10:22:46.371Z,100562.18
2018-11-26T10:25:17.847Z,100569.68
2018-11-26T10:27:46.171Z,100559.56
2018-11-26T10:30:16.701Z,100556.95
2018-11-26T10:32:45.522Z,100555.87
2018-11-26T10:35:14.820Z,100549.67
2018-11-26T10:37:43.180Z,100539.77
2018-11-26T10:40:15.498Z,100542.81
2018-11-26T10:42:43.731Z,100540.89
2018-11-26T10:45:14.057Z,100544.98
2018-11-26T10:47:42.442Z,100529.86
2018-11-26T10:50:15.895Z,100541.63
2018-11-26T10:52:45.411Z,100535.44
2018-11-26T10:55:21.825Z,100538.63
2018-11-26T10:57:50.294Z,100547.98
2018-11-26T11:00:23.939Z,100542.77
2018-11-26T11:02:52.520Z,100542.34
2018-11-26T11:05:20.798Z,100550.48
2018-11-26T11:07:49.048Z,100548.09
2018-11-26T11:10:19.598Z,100557.94
2018-11-26T11:12:47.932Z,100555.83
2018-11-26T11:15:16.165Z,100555.00
2018-11-26T11:17:44.514Z,100557.88
2018-11-26T11:20:17.675Z,100554.02
2018-11-26T11:22:45.968Z,100550.42
2018-11-26T11:25:15.010Z,100556.23
2018-11-26T11:27:45.334Z,100561.61
2018-11-26T11:30:16.550Z,100566.53
2018-11-26T11:32:44.793Z,100564.84
2018-11-26T11:35:14.040Z,100566.53
2018-11-26T11:37:42.891Z,100561.01
2018-11-26T11:40:12.702Z,100560.16
2018-11-26T11:42:40.946Z,100562.52
2018-11-26T11:45:12.235Z,100550.11
2018-11-26T11:47:40.528Z,100552.33
2018-11-26T11:50:11.960Z,100553.05
2018-11-26T11:52:40.223Z,100552.45
2018-11-26T11:55:10.153Z,100547.92
2018-11-26T11:57:38.413Z,100557.80
2018-11-26T12:00:13.680Z,100555.34
2018-11-26T12:02:42.844Z,100554.20
2018-11-26T12:05:12.653Z,100555.15
2018-11-26T12:07:40.892Z,100554.33
2018-11-26T12:10:10.465Z,100550.52
2018-11-26T12:12:38.824Z,100552.81
2018-11-26T12:15:12.568Z,100564.42
2018-11-26T12:17:41.103Z,100547.92
2018-11-26T12:20:11.352Z,100550.54
2018-11-26T12:22:39.808Z,100560.52
2018-11-26T12:25:13.393Z,100552.84
2018-11-26T12:27:41.676Z,100549.41
2018-11-26T12:30:13.594Z,100556.36
2018-11-26T12:32:41.831Z,100553.75
2018-11-26T12:35:10.120Z,100563.14
2018-11-26T12:37:38.396Z,100567.00
2018-11-26T12:40:10.470Z,100561.92
2018-11-26T12:42:38.704Z,100557.17
2018-11-26T12:45:40.215Z,100557.61
2018-11-26T12:48:08.462Z,100560.22
2018-11-26T12:50:36.736Z,100561.19
2018-11-26T12:53:04.966Z,100560.62
2018-11-26T12:55:33.488Z,100563.58
2018-11-26T12:58:01.746Z,100565.94
2018-11-26T13:00:30.312Z,100566.81
2018-11-26T13:03:03.432Z,100564.11
2018-11-26T13:05:31.654Z,100561.84
2018-11-26T13:08:00.033Z,100571.08
2018-11-26T13:10:28.356Z,100569.70
2018-11-26T13:12:56.600Z,100574.02
2018-11-26T13:15:26.238Z,100571.30
2018-11-26T13:17:54.572Z,100572.37
2018-11-26T13:20:25.664Z,100570.83
2018-11-26T13:22:54.256Z,100574.18
2018-11-26T13:25:25.731Z,100567.66
2018-11-26T13:27:56.060Z,100570.42
2018-11-26T13:30:25.720Z,100558.56
2018-11-26T13:32:55.460Z,100571.28
2018-11-26T13:35:24.004Z,100574.48
2018-11-26T13:37:52.012Z,100579.36
2018-11-26T13:40:20.936Z,100572.94
2018-11-26T13:42:49.684Z,100588.76
2018-11-26T13:45:21.037Z,100574.48
2018-11-26T13:47:49.308Z,100583.77
2018-11-26T13:50:23.101Z,100575.77
2018-11-26T13:52:51.387Z,100592.31
2018-11-26T13:55:19.629Z,100590.66
2018-11-26T13:57:47.922Z,100591.88
2018-11-26T14:00:17.186Z,100591.25
2018-11-26T14:02:45.443Z,100599.95
2018-11-26T14:05:15.421Z,100594.00
2018-11-26T14:07:43.992Z,100599.57
2018-11-26T14:10:15.442Z,100602.42
2018-11-26T14:12:44.353Z,100602.32
2018-11-26T14:15:13.889Z,100601.25
2018-11-26T14:17:42.153Z,100600.91
2018-11-26T14:20:14.570Z,100604.96
2018-11-26T14:22:42.878Z,100610.18
2018-11-26T14:25:14.484Z,100609.34
2018-11-26T14:27:43.329Z,100601.99
2018-11-26T14:30:14.713Z,100600.20
2018-11-26T14:32:42.981Z,100611.86
2018-11-26T14:35:12.162Z,100616.25
2018-11-26T14:37:39.596Z,100613.16
2018-11-26T14:40:10.628Z,100616.13
2018-11-26T14:42:38.936Z,100618.63
2018-11-26T14:45:09.549Z,100616.97
2018-11-26T14:47:37.777Z,100623.59
2018-11-26T14:50:09.096Z,100624.20
2018-11-26T14:52:37.375Z,100629.91
2018-11-26T14:55:08.382Z,100631.80
2018-11-26T14:57:36.716Z,100634.16
2018-11-26T15:00:05.930Z,100629.88
2018-11-26T15:02:34.334Z,100637.84
2018-11-26T15:05:02.605Z,100633.56
2018-11-26T15:07:30.893Z,100633.08
2018-11-26T15:09:59.149Z,100628.22
2018-11-26T15:12:27.425Z,100642.92
2018-11-26T15:14:55.725Z,100631.30
2018-11-26T15:17:23.935Z,100644.60
2018-11-26T15:19:52.370Z,100652.30
2018-11-26T15:22:20.665Z,100646.48
2018-11-26T15:24:48.897Z,100654.55
2018-11-26T15:27:17.122Z,100649.55
2018-11-26T15:29:45.566Z,100654.06
2018-11-26T15:32:13.805Z,100661.91
2018-11-26T15:34:42.109Z,100660.58
2018-11-26T15:37:10.418Z,100668.63
2018-11-26T15:39:38.675Z,100663.64
2018-11-26T15:42:06.946Z,100666.95
2018-11-26T15:44:35.228Z,100664.70
2018-11-26T15:47:03.458Z,100669.91
2018-11-26T15:49:31.686Z,100672.52
2018-11-26T15:51:59.936Z,100675.23
2018-11-26T15:54:28.218Z,100665.49
2018-11-26T15:56:56.502Z,100666.93
2018-11-26T15:59:24.758Z,100673.70
2018-11-26T16:01:52.977Z,100673.80
2018-11-26T16:04:21.245Z,100674.87
2018-11-26T16:06:49.505Z,100679.37
2018-11-26T16:09:17.733Z,100679.97
2018-11-26T16:11:45.958Z,100683.76
2018-11-26T16:14:14.190Z,100682.33
2018-11-26T16:16:42.427Z,100688.97
2018-11-26T16:19:10.701Z,100685.44
2018-11-26T16:21:38.926Z,100694.58
2018-11-26T16:24:07.350Z,100693.62
2018-11-26T16:26:35.595Z,100699.09
2018-11-26T16:29:03.814Z,100704.30
2018-11-26T16:31:32.073Z,100706.05
2018-11-26T16:34:00.337Z,100706.98
2018-11-26T16:36:28.569Z,100699.16
2018-11-26T16:38:56.793Z,100702.45
2018-11-26T16:41:25.078Z,100703.16
2018-11-26T16:43:53.651Z,100706.25
2018-11-26T16:46:22.371Z,100710.89
2018-11-26T16:48:50.831Z,100709.20
2018-11-26T16:51:19.090Z,100713.08
2018-11-26T16:53:47.393Z,100715.11
2018-11-26T16:56:15.900Z,100722.11
2018-11-26T16:58:44.241Z,100718.80
2018-11-26T17:01:12.478Z,100726.02
2018-11-26T17:03:40.811Z,100731.93
2018-11-26T17:06:09.182Z,100730.25
2018-11-26T17:08:37.398Z,100731.55
2018-11-26T17:11:06.127Z,100738.55
2018-11-26T17:13:34.399Z,100739.02
2018-11-26T17:16:02.749Z,100749.31
2018-11-26T17:18:37.751Z,100759.96
2018-11-26T17:21:06.620Z,100750.92
2018-11-26T17:23:34.889Z,100753.75
2018-11-26T17:26:03.241Z,100755.79
2018-11-26T17:28:31.494Z,100764.17
2018-11-26T17:30:59.732Z,100754.70
2018-11-26T17:33:27.966Z,100763.35
2018-11-26T17:35:56.250Z,100773.56
2018-11-26T17:38:24.541Z,100766.34
2018-11-26T17:40:52.806Z,100771.55
2018-11-26T17:43:21.065Z,100765.95
2018-11-26T17:45:49.311Z,100773.55
2018-11-26T17:48:17.543Z,100782.27
2018-11-26T17:50:46.062Z,100777.98
2018-11-26T17:53:17.674Z,100777.20
2018-11-26T17:56:23.130Z,100777.13
2018-11-26T17:58:51.400Z,100783.38
2018-11-26T18:01:24.586Z,100777.81
2018-11-26T18:03:52.802Z,100773.38
2018-11-26T18:06:21.053Z,100780.23
2018-11-26T18:08:49.273Z,100783.78
2018-11-26T18:11:17.494Z,100777.15
2018-11-26T18:13:45.730Z,100778.23
2018-11-26T18:16:14.013Z,100786.46
2018-11-26T18:18:42.254Z,100783.98
2018-11-26T18:21:10.480Z,100786.67
2018-11-26T18:23:38.798Z,100784.63
2018-11-26T18:26:07.149Z,100794.70
2018-11-26T18:28:35.413Z,100792.70
2018-11-26T18:31:03.692Z,100798.59
2018-11-26T18:33:31.920Z,100801.83
2018-11-26T18:36:00.281Z,100800.05
2018-11-26T18:38:28.494Z,100808.36
2018-11-26T18:40:56.816Z,100811.49
2018-11-26T18:43:25.283Z,100814.80
2018-11-26T18:45:53.577Z,100814.73
2018-11-26T18:48:22.477Z,100819.81
2018-11-26T18:50:50.130Z,100824.41
2018-11-26T18:53:18.370Z,100835.31
2018-11-26T18:55:46.715Z,100846.03
2018-11-26T18:58:14.969Z,100836.45
2018-11-26T19:00:49.778Z,100834.53
2018-11-26T19:03:18.505Z,100836.80
2018-11-26T19:05:47.663Z,100835.64
2018-11-26T19:08:15.873Z,100834.13
2018-11-26T19:10:44.439Z,100843.61
2018-11-26T19:13:16.272Z,100842.30
2018-11-26T19:15:46.304Z,100842.30
2018-11-26T19:18:20.177Z,100841.73
2018-11-26T19:20:48.505Z,100842.48
2018-11-26T19:23:16.775Z,100844.53
2018-11-26T19:25:45.741Z,100839.09
2018-11-26T19:28:14.067Z,100845.00
2018-11-26T19:30:42.299Z,100854.35
2018-11-26T19:33:11.213Z,100851.44
2018-11-26T19:35:39.578Z,100854.64
2018-11-26T19:38:08.149Z,100860.12
2018-11-26T19:40:37.757Z,100862.60
2018-11-26T19:43:06.698Z,100865.56
2018-11-26T19:45:35.127Z,100872.06
2018-11-26T19:48:03.414Z,100874.14
2018-11-26T19:50:31.723Z,100873.88
2018-11-26T19:53:00.025Z,100870.18
2018-11-26T19:55:28.332Z,100878.05
2018-11-26T19:57:57.849Z,100879.62
2018-11-26T20:00:29.364Z,100877.30
2018-11-26T20:03:05.282Z,100876.61
2018-11-26T20:05:44.184Z,100872.20
2018-11-26T20:08:12.450Z,100878.39
2018-11-26T20:10:40.741Z,100879.96
2018-11-26T20:13:08.976Z,100880.22
2018-11-26T20:15:37.227Z,100886.36
2018-11-26T20:18:06.316Z,100893.34
2018-11-26T20:20:34.584Z,100887.86
2018-11-26T20:23:02.803Z,100895.47
2018-11-26T20:25:31.119Z,100897.13
2018-11-26T20:27:59.363Z,100902.55
2018-11-26T20:30:27.625Z,100903.65
2018-11-26T20:32:55.981Z,100904.27
2018-11-26T20:35:24.239Z,100911.53
2018-11-26T20:37:52.473Z,100900.70
2018-11-26T20:40:20.796Z,100916.48
2018-11-26T20:42:51.806Z,100915.27
2018-11-26T20:45:20.104Z,100917.38
2018-11-26T20:47:49.273Z,100916.70
2018-11-26T20:50:25.851Z,100921.00
2018-11-26T20:52:54.145Z,100917.91
2018-11-26T20:55:23.676Z,100915.54
2018-11-26T20:57:53.201Z,100919.45
2018-11-26T21:00:22.641Z,100918.27
2018-11-26T21:02:53.032Z,100919.58
2018-11-26T21:05:21.315Z,100918.39
2018-11-26T21:07:49.601Z,100917.02
2018-11-26T21:10:17.967Z,100924.18
2018-11-26T21:12:46.260Z,100927.53
2018-11-26T21:15:16.865Z,100923.77
2018-11-26T21:17:46.822Z,100927.58
2018-11-26T21:20:18.788Z,100925.89
2018-11-26T21:22:47.045Z,100926.23
2018-11-26T21:25:16.168Z,100933.38
2018-11-26T21:27:44.566Z,100932.73
2018-11-26T21:30:15.372Z,100934.95
2018-11-26T21:32:43.648Z,100929.73
2018-11-26T21:35:12.958Z,100933.44
2018-11-26T21:37:42.148Z,100935.09
2018-11-26T21:40:11.807Z,100931.98
2018-11-26T21:42:40.060Z,100933.23
2018-11-26T21:45:10.447Z,100939.66
2018-11-26T21:47:38.725Z,100930.27
2018-11-26T21:50:09.701Z,100929.23
2018-11-26T21:52:37.939Z,100932.53
2018-11-26T21:55:09.012Z,100930.16
2018-11-26T21:57:37.304Z,100928.61
2018-11-26T22:00:13.053Z,100928.02
2018-11-26T22:02:41.444Z,100936.94
2018-11-26T22:05:09.978Z,100942.51
2018-11-26T22:07:38.268Z,100948.73
2018-11-26T22:10:09.747Z,100952.23
2018-11-26T22:12:38.209Z,100950.45
2018-11-26T22:15:09.342Z,100954.30
2018-11-26T22:17:38.234Z,100955.19
2018-11-26T22:20:12.688Z,100956.65
2018-11-26T22:22:41.025Z,100957.33
2018-11-26T22:25:10.671Z,100959.25
2018-11-26T22:27:39.228Z,100962.60
2018-11-26T22:30:11.846Z,100964.65
2018-11-26T22:32:40.167Z,100963.44
2018-11-26T22:35:08.671Z,100966.04
2018-11-26T22:37:37.073Z,100965.95
2018-11-26T22:40:10.376Z,100969.80
2018-11-26T22:42:38.893Z,100967.81
2018-11-26T22:45:09.941Z,100972.36
2018-11-26T22:47:38.177Z,100974.41
2018-11-26T22:50:13.692Z,100970.10
2018-11-26T22:52:42.021Z,100969.95
2018-11-26T22:55:13.425Z,100971.61
2018-11-26T22:57:42.371Z,100970.16
2018-11-26T23:00:29.064Z,100973.52
2018-11-26T23:02:59.649Z,100974.45
2018-11-26T23:05:28.090Z,100976.41
2018-11-26T23:07:56.395Z,100967.73
2018-11-26T23:10:24.616Z,100972.47
2018-11-26T23:12:52.825Z,100972.94
2018-11-26T23:15:21.131Z,100981.33
2018-11-26T23:17:49.541Z,100984.41
2018-11-26T23:20:18.937Z,100978.63
2018-11-26T23:22:47.164Z,100979.94
2018-11-26T23:25:18.965Z,100981.88
2018-11-26T23:27:47.304Z,100978.20
2018-11-26T23:30:20.748Z,100983.30
2018-11-26T23:32:51.071Z,100983.66
2018-11-26T23:35:19.372Z,100986.80
2018-11-26T23:37:47.611Z,100986.13
2018-11-26T23:40:15.947Z,100985.30
2018-11-26T23:42:44.167Z,100987.91
2018-11-26T23:45:14.367Z,100989.21
2018-11-26T23:47:42.631Z,100994.22
2018-11-26T23:50:12.706Z,100996.44
2018-11-26T23:52:41.385Z,100999.11
2018-11-26T23:55:14.524Z,100998.91
2018-11-26T23:57:49.203Z,101003.50
